sensor_id;sensor_type;location;lat;lon;timestamp;P1;durP1;ratioP1;P2;durP2;ratioP2
62941;SDS011;49042;47.318;19.874;2022-12-29T00:00:21;40.38;;;19.62;;
62941;SDS011;49042;47.318;19.874;2022-12-29T00:03:23;41.53;;;22.13;;
62941;SDS011;49042;47.318;19.874;2022-12-29T00:06:24;45.63;;;22.83;;
62941;SDS011;49042;47.318;19.874;2022-12-29T00:09:27;55.28;;;26.50;;
62941;SDS011;49042;47.318;19.874;2022-12-29T00:12:29;53.35;;;26.33;;
62941;SDS011;49042;47.318;19.874;2022-12-29T00:15:50;36.67;;;19.40;;
62941;SDS011;49042;47.318;19.874;2022-12-29T00:18:52;40.15;;;21.35;;
62941;SDS011;49042;47.318;19.874;2022-12-29T00:21:54;41.95;;;21.25;;
62941;SDS011;49042;47.318;19.874;2022-12-29T00:25:15;35.17;;;17.65;;
62941;SDS011;49042;47.318;19.874;2022-12-29T00:28:35;34.72;;;16.92;;
62941;SDS011;49042;47.318;19.874;2022-12-29T00:31:55;30.95;;;15.93;;
62941;SDS011;49042;47.318;19.874;2022-12-29T00:35:22;28.62;;;14.38;;
62941;SDS011;49042;47.318;19.874;2022-12-29T00:38:34;32.92;;;16.30;;
62941;SDS011;49042;47.318;19.874;2022-12-29T00:42:02;32.38;;;16.90;;
62941;SDS011;49042;47.318;19.874;2022-12-29T00:45:25;31.02;;;16.23;;
62941;SDS011;49042;47.318;19.874;2022-12-29T00:48:27;30.55;;;17.10;;
62941;SDS011;49042;47.318;19.874;2022-12-29T00:51:47;26.77;;;15.18;;
62941;SDS011;49042;47.318;19.874;2022-12-29T00:54:49;28.40;;;16.20;;
62941;SDS011;49042;47.318;19.874;2022-12-29T00:57:51;29.95;;;15.27;;
62941;SDS011;49042;47.318;19.874;2022-12-29T01:00:52;29.55;;;14.43;;
62941;SDS011;49042;47.318;19.874;2022-12-29T01:04:02;36.85;;;17.60;;
62941;SDS011;49042;47.318;19.874;2022-12-29T01:07:05;39.00;;;18.83;;
62941;SDS011;49042;47.318;19.874;2022-12-29T01:10:07;33.17;;;16.62;;
62941;SDS011;49042;47.318;19.874;2022-12-29T01:13:12;25.92;;;14.30;;
62941;SDS011;49042;47.318;19.874;2022-12-29T01:16:14;21.05;;;12.70;;
62941;SDS011;49042;47.318;19.874;2022-12-29T01:19:16;26.48;;;13.75;;
62941;SDS011;49042;47.318;19.874;2022-12-29T01:22:19;24.37;;;12.18;;
62941;SDS011;49042;47.318;19.874;2022-12-29T01:25:20;25.27;;;13.68;;
62941;SDS011;49042;47.318;19.874;2022-12-29T01:28:22;20.30;;;11.98;;
62941;SDS011;49042;47.318;19.874;2022-12-29T01:31:26;22.70;;;13.20;;
62941;SDS011;49042;47.318;19.874;2022-12-29T01:34:28;27.95;;;14.77;;
62941;SDS011;49042;47.318;19.874;2022-12-29T01:37:30;22.13;;;13.55;;
62941;SDS011;49042;47.318;19.874;2022-12-29T01:40:31;32.47;;;12.40;;
62941;SDS011;49042;47.318;19.874;2022-12-29T01:46:53;23.12;;;11.93;;
62941;SDS011;49042;47.318;19.874;2022-12-29T01:49:55;32.10;;;13.05;;
62941;SDS011;49042;47.318;19.874;2022-12-29T01:53:10;25.00;;;12.80;;
62941;SDS011;49042;47.318;19.874;2022-12-29T01:56:18;22.50;;;12.23;;
62941;SDS011;49042;47.318;19.874;2022-12-29T01:59:22;26.48;;;12.73;;
62941;SDS011;49042;47.318;19.874;2022-12-29T02:02:29;21.30;;;11.57;;
62941;SDS011;49042;47.318;19.874;2022-12-29T02:05:36;23.42;;;12.37;;
62941;SDS011;49042;47.318;19.874;2022-12-29T02:08:43;23.85;;;12.80;;
62941;SDS011;49042;47.318;19.874;2022-12-29T02:11:48;24.12;;;11.10;;
62941;SDS011;49042;47.318;19.874;2022-12-29T02:14:50;27.90;;;11.75;;
62941;SDS011;49042;47.318;19.874;2022-12-29T02:32:03;23.38;;;12.65;;
62941;SDS011;49042;47.318;19.874;2022-12-29T02:41:27;24.00;;;12.88;;
62941;SDS011;49042;47.318;19.874;2022-12-29T02:51:27;34.42;;;14.50;;
62941;SDS011;49042;47.318;19.874;2022-12-29T02:54:35;25.80;;;13.73;;
62941;SDS011;49042;47.318;19.874;2022-12-29T02:57:43;24.00;;;12.63;;
62941;SDS011;49042;47.318;19.874;2022-12-29T03:08:23;29.17;;;13.18;;
62941;SDS011;49042;47.318;19.874;2022-12-29T03:12:01;25.42;;;12.43;;
62941;SDS011;49042;47.318;19.874;2022-12-29T03:15:10;28.20;;;14.18;;
62941;SDS011;49042;47.318;19.874;2022-12-29T03:22:04;29.75;;;15.23;;
62941;SDS011;49042;47.318;19.874;2022-12-29T03:25:30;31.08;;;13.82;;
62941;SDS011;49042;47.318;19.874;2022-12-29T03:28:36;26.10;;;14.82;;
62941;SDS011;49042;47.318;19.874;2022-12-29T03:31:41;27.10;;;14.18;;
62941;SDS011;49042;47.318;19.874;2022-12-29T03:34:44;33.63;;;15.77;;
62941;SDS011;49042;47.318;19.874;2022-12-29T03:37:50;25.95;;;14.20;;
62941;SDS011;49042;47.318;19.874;2022-12-29T03:40:56;29.58;;;14.63;;
62941;SDS011;49042;47.318;19.874;2022-12-29T03:44:01;23.98;;;13.55;;
62941;SDS011;49042;47.318;19.874;2022-12-29T03:47:03;31.27;;;14.38;;
62941;SDS011;49042;47.318;19.874;2022-12-29T03:50:05;27.08;;;13.82;;
62941;SDS011;49042;47.318;19.874;2022-12-29T03:53:09;27.10;;;13.88;;
62941;SDS011;49042;47.318;19.874;2022-12-29T03:56:11;25.75;;;13.77;;
62941;SDS011;49042;47.318;19.874;2022-12-29T03:59:13;25.80;;;14.65;;
62941;SDS011;49042;47.318;19.874;2022-12-29T04:02:14;28.67;;;14.63;;
62941;SDS011;49042;47.318;19.874;2022-12-29T04:05:18;26.45;;;14.27;;
62941;SDS011;49042;47.318;19.874;2022-12-29T04:08:20;26.27;;;14.60;;
62941;SDS011;49042;47.318;19.874;2022-12-29T04:11:22;27.02;;;15.15;;
62941;SDS011;49042;47.318;19.874;2022-12-29T04:14:30;28.20;;;15.00;;
62941;SDS011;49042;47.318;19.874;2022-12-29T04:17:31;26.55;;;14.50;;
62941;SDS011;49042;47.318;19.874;2022-12-29T04:20:33;30.02;;;14.82;;
62941;SDS011;49042;47.318;19.874;2022-12-29T04:23:53;23.85;;;13.18;;
62941;SDS011;49042;47.318;19.874;2022-12-29T04:26:55;23.40;;;13.38;;
62941;SDS011;49042;47.318;19.874;2022-12-29T04:29:56;24.52;;;14.57;;
62941;SDS011;49042;47.318;19.874;2022-12-29T04:32:58;27.75;;;14.13;;
62941;SDS011;49042;47.318;19.874;2022-12-29T04:36:00;25.02;;;14.77;;
62941;SDS011;49042;47.318;19.874;2022-12-29T04:39:02;28.02;;;14.95;;
62941;SDS011;49042;47.318;19.874;2022-12-29T04:42:06;28.60;;;16.15;;
62941;SDS011;49042;47.318;19.874;2022-12-29T04:45:08;28.25;;;14.50;;
62941;SDS011;49042;47.318;19.874;2022-12-29T04:48:10;28.73;;;14.52;;
62941;SDS011;49042;47.318;19.874;2022-12-29T04:51:12;28.77;;;15.52;;
62941;SDS011;49042;47.318;19.874;2022-12-29T04:54:14;29.58;;;14.57;;
62941;SDS011;49042;47.318;19.874;2022-12-29T04:57:16;28.10;;;14.15;;
62941;SDS011;49042;47.318;19.874;2022-12-29T05:00:17;24.98;;;13.50;;
62941;SDS011;49042;47.318;19.874;2022-12-29T05:03:20;24.08;;;14.02;;
62941;SDS011;49042;47.318;19.874;2022-12-29T05:06:21;26.83;;;14.30;;
62941;SDS011;49042;47.318;19.874;2022-12-29T05:09:23;24.98;;;14.35;;
62941;SDS011;49042;47.318;19.874;2022-12-29T05:12:25;25.75;;;13.43;;
62941;SDS011;49042;47.318;19.874;2022-12-29T05:15:30;25.52;;;13.18;;
62941;SDS011;49042;47.318;19.874;2022-12-29T05:18:32;26.98;;;13.13;;
62941;SDS011;49042;47.318;19.874;2022-12-29T05:21:33;25.30;;;13.10;;
62941;SDS011;49042;47.318;19.874;2022-12-29T05:24:35;25.42;;;13.80;;
62941;SDS011;49042;47.318;19.874;2022-12-29T05:27:37;24.50;;;13.13;;
62941;SDS011;49042;47.318;19.874;2022-12-29T05:30:39;25.88;;;13.95;;
62941;SDS011;49042;47.318;19.874;2022-12-29T05:33:40;26.15;;;13.43;;
62941;SDS011;49042;47.318;19.874;2022-12-29T05:36:42;34.13;;;14.73;;
62941;SDS011;49042;47.318;19.874;2022-12-29T05:39:44;27.48;;;14.40;;
62941;SDS011;49042;47.318;19.874;2022-12-29T05:42:45;28.52;;;14.55;;
62941;SDS011;49042;47.318;19.874;2022-12-29T05:45:50;32.50;;;15.63;;
62941;SDS011;49042;47.318;19.874;2022-12-29T05:48:53;29.63;;;16.12;;
62941;SDS011;49042;47.318;19.874;2022-12-29T05:51:55;42.13;;;19.30;;
62941;SDS011;49042;47.318;19.874;2022-12-29T05:54:56;45.67;;;27.60;;
62941;SDS011;49042;47.318;19.874;2022-12-29T05:57:58;42.78;;;24.55;;
62941;SDS011;49042;47.318;19.874;2022-12-29T06:01:00;71.90;;;36.53;;
62941;SDS011;49042;47.318;19.874;2022-12-29T06:04:01;125.68;;;50.12;;
62941;SDS011;49042;47.318;19.874;2022-12-29T06:07:03;99.40;;;45.53;;
62941;SDS011;49042;47.318;19.874;2022-12-29T06:10:05;87.55;;;42.15;;
62941;SDS011;49042;47.318;19.874;2022-12-29T06:13:08;95.38;;;43.30;;
62941;SDS011;49042;47.318;19.874;2022-12-29T06:16:10;36.80;;;21.10;;
62941;SDS011;49042;47.318;19.874;2022-12-29T06:19:12;35.92;;;18.45;;
62941;SDS011;49042;47.318;19.874;2022-12-29T06:22:14;35.30;;;20.05;;
62941;SDS011;49042;47.318;19.874;2022-12-29T06:25:16;33.67;;;17.52;;
62941;SDS011;49042;47.318;19.874;2022-12-29T06:28:17;34.95;;;16.58;;
62941;SDS011;49042;47.318;19.874;2022-12-29T06:31:19;37.55;;;16.17;;
62941;SDS011;49042;47.318;19.874;2022-12-29T06:34:21;35.42;;;16.50;;
62941;SDS011;49042;47.318;19.874;2022-12-29T06:37:23;43.42;;;17.50;;
62941;SDS011;49042;47.318;19.874;2022-12-29T06:40:24;35.20;;;14.45;;
62941;SDS011;49042;47.318;19.874;2022-12-29T06:43:26;28.17;;;14.35;;
62941;SDS011;49042;47.318;19.874;2022-12-29T06:46:28;33.58;;;14.00;;
62941;SDS011;49042;47.318;19.874;2022-12-29T06:49:30;29.85;;;15.32;;
62941;SDS011;49042;47.318;19.874;2022-12-29T06:52:31;25.70;;;14.00;;
62941;SDS011;49042;47.318;19.874;2022-12-29T06:55:33;27.20;;;12.70;;
62941;SDS011;49042;47.318;19.874;2022-12-29T06:58:35;29.12;;;12.88;;
62941;SDS011;49042;47.318;19.874;2022-12-29T07:01:36;26.08;;;12.35;;
62941;SDS011;49042;47.318;19.874;2022-12-29T07:04:38;28.08;;;13.57;;
62941;SDS011;49042;47.318;19.874;2022-12-29T07:07:40;24.67;;;12.88;;
62941;SDS011;49042;47.318;19.874;2022-12-29T07:10:42;23.70;;;13.15;;
62941;SDS011;49042;47.318;19.874;2022-12-29T07:13:43;23.98;;;10.85;;
62941;SDS011;49042;47.318;19.874;2022-12-29T07:16:45;24.92;;;12.95;;
62941;SDS011;49042;47.318;19.874;2022-12-29T07:19:47;19.33;;;10.68;;
62941;SDS011;49042;47.318;19.874;2022-12-29T07:22:48;18.55;;;10.70;;
62941;SDS011;49042;47.318;19.874;2022-12-29T07:25:58;21.65;;;11.38;;
62941;SDS011;49042;47.318;19.874;2022-12-29T07:29:03;22.58;;;11.40;;
62941;SDS011;49042;47.318;19.874;2022-12-29T07:32:05;19.65;;;11.40;;
62941;SDS011;49042;47.318;19.874;2022-12-29T07:35:07;17.83;;;10.85;;
62941;SDS011;49042;47.318;19.874;2022-12-29T07:38:09;25.55;;;11.55;;
62941;SDS011;49042;47.318;19.874;2022-12-29T07:41:11;20.02;;;10.60;;
62941;SDS011;49042;47.318;19.874;2022-12-29T07:44:12;17.83;;;10.95;;
62941;SDS011;49042;47.318;19.874;2022-12-29T07:47:14;22.73;;;11.60;;
62941;SDS011;49042;47.318;19.874;2022-12-29T07:50:16;20.17;;;11.15;;
62941;SDS011;49042;47.318;19.874;2022-12-29T07:53:18;20.83;;;12.30;;
62941;SDS011;49042;47.318;19.874;2022-12-29T07:56:20;22.27;;;11.55;;
62941;SDS011;49042;47.318;19.874;2022-12-29T07:59:21;21.60;;;11.98;;
62941;SDS011;49042;47.318;19.874;2022-12-29T08:02:24;17.73;;;11.52;;
62941;SDS011;49042;47.318;19.874;2022-12-29T08:05:27;21.83;;;12.10;;
62941;SDS011;49042;47.318;19.874;2022-12-29T08:08:29;21.50;;;12.25;;
62941;SDS011;49042;47.318;19.874;2022-12-29T08:11:31;25.48;;;12.45;;
62941;SDS011;49042;47.318;19.874;2022-12-29T08:14:32;22.58;;;14.23;;
62941;SDS011;49042;47.318;19.874;2022-12-29T08:17:34;30.50;;;16.52;;
62941;SDS011;49042;47.318;19.874;2022-12-29T08:20:36;29.83;;;16.25;;
62941;SDS011;49042;47.318;19.874;2022-12-29T08:23:37;37.75;;;21.10;;
62941;SDS011;49042;47.318;19.874;2022-12-29T08:26:39;34.45;;;17.12;;
62941;SDS011;49042;47.318;19.874;2022-12-29T08:29:41;20.08;;;12.48;;
62941;SDS011;49042;47.318;19.874;2022-12-29T08:32:43;22.40;;;13.18;;
62941;SDS011;49042;47.318;19.874;2022-12-29T08:35:44;23.65;;;12.68;;
62941;SDS011;49042;47.318;19.874;2022-12-29T08:38:46;22.20;;;12.77;;
62941;SDS011;49042;47.318;19.874;2022-12-29T08:41:48;25.67;;;13.62;;
62941;SDS011;49042;47.318;19.874;2022-12-29T08:44:50;22.65;;;13.10;;
62941;SDS011;49042;47.318;19.874;2022-12-29T08:47:51;34.28;;;18.85;;
62941;SDS011;49042;47.318;19.874;2022-12-29T08:50:53;24.15;;;13.55;;
62941;SDS011;49042;47.318;19.874;2022-12-29T08:53:55;22.52;;;14.60;;
62941;SDS011;49042;47.318;19.874;2022-12-29T08:56:56;49.03;;;24.95;;
62941;SDS011;49042;47.318;19.874;2022-12-29T08:59:58;73.10;;;36.72;;
62941;SDS011;49042;47.318;19.874;2022-12-29T09:03:00;35.78;;;20.65;;
62941;SDS011;49042;47.318;19.874;2022-12-29T09:06:02;28.67;;;16.87;;
62941;SDS011;49042;47.318;19.874;2022-12-29T09:09:03;29.33;;;16.73;;
62941;SDS011;49042;47.318;19.874;2022-12-29T09:12:05;24.55;;;13.40;;
62941;SDS011;49042;47.318;19.874;2022-12-29T09:15:07;28.65;;;14.02;;
62941;SDS011;49042;47.318;19.874;2022-12-29T09:18:09;24.25;;;12.35;;
62941;SDS011;49042;47.318;19.874;2022-12-29T09:21:19;28.30;;;15.45;;
62941;SDS011;49042;47.318;19.874;2022-12-29T09:24:21;20.85;;;12.75;;
62941;SDS011;49042;47.318;19.874;2022-12-29T09:27:22;24.90;;;12.75;;
62941;SDS011;49042;47.318;19.874;2022-12-29T09:30:24;28.17;;;13.52;;
62941;SDS011;49042;47.318;19.874;2022-12-29T09:33:26;29.17;;;13.30;;
62941;SDS011;49042;47.318;19.874;2022-12-29T09:36:28;24.95;;;14.48;;
62941;SDS011;49042;47.318;19.874;2022-12-29T09:39:30;26.90;;;14.38;;
62941;SDS011;49042;47.318;19.874;2022-12-29T09:45:43;22.98;;;14.02;;
62941;SDS011;49042;47.318;19.874;2022-12-29T09:48:49;22.35;;;12.93;;
62941;SDS011;49042;47.318;19.874;2022-12-29T09:52:00;24.85;;;14.07;;
62941;SDS011;49042;47.318;19.874;2022-12-29T09:55:12;30.50;;;14.70;;
62941;SDS011;49042;47.318;19.874;2022-12-29T09:58:21;26.30;;;13.48;;
62941;SDS011;49042;47.318;19.874;2022-12-29T10:04:32;28.83;;;15.35;;
62941;SDS011;49042;47.318;19.874;2022-12-29T10:07:55;29.33;;;13.98;;
62941;SDS011;49042;47.318;19.874;2022-12-29T10:14:47;29.83;;;13.43;;
62941;SDS011;49042;47.318;19.874;2022-12-29T10:24:50;23.42;;;11.90;;
62941;SDS011;49042;47.318;19.874;2022-12-29T10:27:55;26.70;;;13.18;;
62941;SDS011;49042;47.318;19.874;2022-12-29T10:31:03;27.17;;;13.57;;
62941;SDS011;49042;47.318;19.874;2022-12-29T10:34:17;39.67;;;21.83;;
62941;SDS011;49042;47.318;19.874;2022-12-29T10:40:48;44.10;;;20.50;;
62941;SDS011;49042;47.318;19.874;2022-12-29T10:43:53;31.83;;;14.73;;
62941;SDS011;49042;47.318;19.874;2022-12-29T10:46:59;28.67;;;15.13;;
62941;SDS011;49042;47.318;19.874;2022-12-29T10:50:04;22.08;;;13.95;;
62941;SDS011;49042;47.318;19.874;2022-12-29T10:53:06;24.08;;;13.73;;
62941;SDS011;49042;47.318;19.874;2022-12-29T10:56:15;26.65;;;14.57;;
62941;SDS011;49042;47.318;19.874;2022-12-29T10:59:41;22.52;;;14.02;;
62941;SDS011;49042;47.318;19.874;2022-12-29T11:06:03;26.25;;;14.32;;
62941;SDS011;49042;47.318;19.874;2022-12-29T11:09:25;28.10;;;14.85;;
62941;SDS011;49042;47.318;19.874;2022-12-29T11:12:55;36.35;;;18.27;;
62941;SDS011;49042;47.318;19.874;2022-12-29T11:16:00;39.60;;;19.10;;
62941;SDS011;49042;47.318;19.874;2022-12-29T11:19:04;31.30;;;18.25;;
62941;SDS011;49042;47.318;19.874;2022-12-29T11:22:39;39.70;;;18.58;;
62941;SDS011;49042;47.318;19.874;2022-12-29T11:25:35;35.40;;;17.70;;
62941;SDS011;49042;47.318;19.874;2022-12-29T11:28:41;37.53;;;18.25;;
62941;SDS011;49042;47.318;19.874;2022-12-29T11:31:49;32.28;;;16.45;;
62941;SDS011;49042;47.318;19.874;2022-12-29T11:34:53;31.12;;;17.25;;
62941;SDS011;49042;47.318;19.874;2022-12-29T11:37:56;28.75;;;15.55;;
62941;SDS011;49042;47.318;19.874;2022-12-29T11:40:59;29.73;;;15.90;;
62941;SDS011;49042;47.318;19.874;2022-12-29T11:44:03;30.15;;;15.48;;
62941;SDS011;49042;47.318;19.874;2022-12-29T11:47:07;29.67;;;15.15;;
62941;SDS011;49042;47.318;19.874;2022-12-29T11:50:32;29.00;;;14.82;;
62941;SDS011;49042;47.318;19.874;2022-12-29T11:53:47;65.37;;;27.42;;
62941;SDS011;49042;47.318;19.874;2022-12-29T11:56:53;32.17;;;18.83;;
62941;SDS011;49042;47.318;19.874;2022-12-29T11:59:56;51.35;;;23.73;;
62941;SDS011;49042;47.318;19.874;2022-12-29T12:03:04;44.85;;;22.20;;
62941;SDS011;49042;47.318;19.874;2022-12-29T12:06:14;27.40;;;15.90;;
62941;SDS011;49042;47.318;19.874;2022-12-29T12:09:23;28.77;;;16.35;;
62941;SDS011;49042;47.318;19.874;2022-12-29T12:12:43;28.00;;;16.65;;
62941;SDS011;49042;47.318;19.874;2022-12-29T12:15:54;41.88;;;17.67;;
62941;SDS011;49042;47.318;19.874;2022-12-29T12:22:29;72.37;;;32.90;;
62941;SDS011;49042;47.318;19.874;2022-12-29T12:25:37;84.70;;;37.00;;
62941;SDS011;49042;47.318;19.874;2022-12-29T12:35:51;39.70;;;21.23;;
62941;SDS011;49042;47.318;19.874;2022-12-29T12:52:14;30.00;;;16.48;;
62941;SDS011;49042;47.318;19.874;2022-12-29T13:18:19;30.10;;;14.30;;
62941;SDS011;49042;47.318;19.874;2022-12-29T13:28:59;27.90;;;13.38;;
62941;SDS011;49042;47.318;19.874;2022-12-29T13:32:21;22.05;;;13.75;;
62941;SDS011;49042;47.318;19.874;2022-12-29T13:38:56;22.98;;;12.80;;
62941;SDS011;49042;47.318;19.874;2022-12-29T13:42:15;24.48;;;13.18;;
62941;SDS011;49042;47.318;19.874;2022-12-29T13:45:20;24.45;;;12.80;;
62941;SDS011;49042;47.318;19.874;2022-12-29T13:48:30;21.67;;;13.30;;
62941;SDS011;49042;47.318;19.874;2022-12-29T13:51:57;21.80;;;13.85;;
62941;SDS011;49042;47.318;19.874;2022-12-29T13:55:21;24.30;;;13.32;;
62941;SDS011;49042;47.318;19.874;2022-12-29T13:58:44;24.75;;;13.55;;
62941;SDS011;49042;47.318;19.874;2022-12-29T14:02:08;23.50;;;13.70;;
62941;SDS011;49042;47.318;19.874;2022-12-29T14:08:22;23.35;;;13.95;;
62941;SDS011;49042;47.318;19.874;2022-12-29T14:11:29;27.90;;;14.07;;
62941;SDS011;49042;47.318;19.874;2022-12-29T14:14:33;36.92;;;19.55;;
62941;SDS011;49042;47.318;19.874;2022-12-29T14:17:39;30.60;;;17.67;;
62941;SDS011;49042;47.318;19.874;2022-12-29T14:20:58;23.58;;;14.23;;
62941;SDS011;49042;47.318;19.874;2022-12-29T14:27:44;28.45;;;15.48;;
62941;SDS011;49042;47.318;19.874;2022-12-29T14:40:30;45.33;;;23.83;;
62941;SDS011;49042;47.318;19.874;2022-12-29T14:43:32;51.75;;;27.42;;
62941;SDS011;49042;47.318;19.874;2022-12-29T14:46:44;70.37;;;33.20;;
62941;SDS011;49042;47.318;19.874;2022-12-29T14:53:05;65.50;;;29.25;;
62941;SDS011;49042;47.318;19.874;2022-12-29T14:56:11;43.45;;;24.42;;
62941;SDS011;49042;47.318;19.874;2022-12-29T14:59:15;35.10;;;19.73;;
62941;SDS011;49042;47.318;19.874;2022-12-29T15:02:20;64.72;;;27.70;;
62941;SDS011;49042;47.318;19.874;2022-12-29T15:05:30;69.70;;;28.73;;
62941;SDS011;49042;47.318;19.874;2022-12-29T15:08:43;38.30;;;19.02;;
62941;SDS011;49042;47.318;19.874;2022-12-29T15:11:52;36.15;;;19.85;;
62941;SDS011;49042;47.318;19.874;2022-12-29T15:14:58;45.00;;;21.73;;
62941;SDS011;49042;47.318;19.874;2022-12-29T15:18:11;33.25;;;18.33;;
62941;SDS011;49042;47.318;19.874;2022-12-29T15:21:34;26.77;;;15.43;;
62941;SDS011;49042;47.318;19.874;2022-12-29T15:24:40;31.02;;;17.27;;
62941;SDS011;49042;47.318;19.874;2022-12-29T15:27:48;24.77;;;14.48;;
62941;SDS011;49042;47.318;19.874;2022-12-29T15:33:54;34.28;;;17.25;;
62941;SDS011;49042;47.318;19.874;2022-12-29T15:37:16;28.05;;;16.87;;
62941;SDS011;49042;47.318;19.874;2022-12-29T15:40:24;29.10;;;17.15;;
62941;SDS011;49042;47.318;19.874;2022-12-29T15:46:53;29.00;;;16.48;;
62941;SDS011;49042;47.318;19.874;2022-12-29T15:50:37;29.50;;;15.82;;
62941;SDS011;49042;47.318;19.874;2022-12-29T15:53:23;37.83;;;20.92;;
62941;SDS011;49042;47.318;19.874;2022-12-29T15:56:30;49.78;;;24.15;;
62941;SDS011;49042;47.318;19.874;2022-12-29T15:59:33;68.05;;;30.37;;
62941;SDS011;49042;47.318;19.874;2022-12-29T16:02:35;63.03;;;30.98;;
62941;SDS011;49042;47.318;19.874;2022-12-29T16:05:38;54.25;;;27.02;;
62941;SDS011;49042;47.318;19.874;2022-12-29T16:08:40;48.85;;;27.45;;
62941;SDS011;49042;47.318;19.874;2022-12-29T16:11:52;54.00;;;26.35;;
62941;SDS011;49042;47.318;19.874;2022-12-29T16:14:57;46.30;;;26.65;;
62941;SDS011;49042;47.318;19.874;2022-12-29T16:18:02;57.53;;;29.55;;
62941;SDS011;49042;47.318;19.874;2022-12-29T16:21:05;41.40;;;23.50;;
62941;SDS011;49042;47.318;19.874;2022-12-29T16:24:25;43.40;;;21.73;;
62941;SDS011;49042;47.318;19.874;2022-12-29T16:27:32;40.17;;;21.40;;
62941;SDS011;49042;47.318;19.874;2022-12-29T16:30:34;40.55;;;21.75;;
62941;SDS011;49042;47.318;19.874;2022-12-29T16:33:38;37.40;;;20.17;;
62941;SDS011;49042;47.318;19.874;2022-12-29T16:37:01;35.30;;;19.65;;
62941;SDS011;49042;47.318;19.874;2022-12-29T16:40:23;35.95;;;19.40;;
62941;SDS011;49042;47.318;19.874;2022-12-29T16:43:33;33.83;;;19.67;;
62941;SDS011;49042;47.318;19.874;2022-12-29T16:46:36;46.03;;;22.33;;
62941;SDS011;49042;47.318;19.874;2022-12-29T16:49:46;32.72;;;18.80;;
62941;SDS011;49042;47.318;19.874;2022-12-29T16:52:52;33.47;;;17.60;;
62941;SDS011;49042;47.318;19.874;2022-12-29T16:55:54;34.67;;;17.60;;
62941;SDS011;49042;47.318;19.874;2022-12-29T17:02:08;36.47;;;20.27;;
62941;SDS011;49042;47.318;19.874;2022-12-29T17:05:17;35.42;;;18.98;;
62941;SDS011;49042;47.318;19.874;2022-12-29T17:08:20;39.65;;;19.42;;
62941;SDS011;49042;47.318;19.874;2022-12-29T17:15:13;34.17;;;18.17;;
62941;SDS011;49042;47.318;19.874;2022-12-29T17:18:19;50.80;;;23.60;;
62941;SDS011;49042;47.318;19.874;2022-12-29T17:21:21;49.80;;;23.15;;
62941;SDS011;49042;47.318;19.874;2022-12-29T17:24:23;32.63;;;20.05;;
62941;SDS011;49042;47.318;19.874;2022-12-29T17:27:26;39.88;;;25.30;;
62941;SDS011;49042;47.318;19.874;2022-12-29T17:30:28;42.97;;;23.60;;
62941;SDS011;49042;47.318;19.874;2022-12-29T17:33:35;32.58;;;18.42;;
62941;SDS011;49042;47.318;19.874;2022-12-29T17:36:39;32.50;;;18.87;;
62941;SDS011;49042;47.318;19.874;2022-12-29T17:39:40;30.25;;;17.77;;
62941;SDS011;49042;47.318;19.874;2022-12-29T17:42:43;31.20;;;18.08;;
62941;SDS011;49042;47.318;19.874;2022-12-29T17:45:48;27.60;;;16.45;;
62941;SDS011;49042;47.318;19.874;2022-12-29T17:48:54;35.60;;;20.15;;
62941;SDS011;49042;47.318;19.874;2022-12-29T17:51:55;36.08;;;19.58;;
62941;SDS011;49042;47.318;19.874;2022-12-29T17:54:57;42.47;;;22.35;;
62941;SDS011;49042;47.318;19.874;2022-12-29T17:58:01;53.25;;;27.67;;
62941;SDS011;49042;47.318;19.874;2022-12-29T18:01:03;108.93;;;50.63;;
62941;SDS011;49042;47.318;19.874;2022-12-29T18:04:05;142.37;;;61.28;;
62941;SDS011;49042;47.318;19.874;2022-12-29T18:07:10;106.12;;;49.25;;
62941;SDS011;49042;47.318;19.874;2022-12-29T18:10:12;87.22;;;41.30;;
62941;SDS011;49042;47.318;19.874;2022-12-29T18:13:32;67.30;;;38.08;;
62941;SDS011;49042;47.318;19.874;2022-12-29T18:16:47;72.50;;;40.03;;
62941;SDS011;49042;47.318;19.874;2022-12-29T18:19:48;88.62;;;47.30;;
62941;SDS011;49042;47.318;19.874;2022-12-29T18:22:53;70.93;;;35.30;;
62941;SDS011;49042;47.318;19.874;2022-12-29T18:25:58;69.30;;;35.95;;
62941;SDS011;49042;47.318;19.874;2022-12-29T18:29:00;80.87;;;37.95;;
62941;SDS011;49042;47.318;19.874;2022-12-29T18:32:03;84.13;;;39.83;;
62941;SDS011;49042;47.318;19.874;2022-12-29T18:35:27;82.20;;;41.37;;
62941;SDS011;49042;47.318;19.874;2022-12-29T18:38:29;77.57;;;40.75;;
62941;SDS011;49042;47.318;19.874;2022-12-29T18:41:32;109.93;;;55.83;;
62941;SDS011;49042;47.318;19.874;2022-12-29T18:44:34;118.25;;;56.42;;
62941;SDS011;49042;47.318;19.874;2022-12-29T18:47:36;94.55;;;49.53;;
62941;SDS011;49042;47.318;19.874;2022-12-29T18:50:38;117.00;;;61.72;;
62941;SDS011;49042;47.318;19.874;2022-12-29T18:53:40;124.03;;;66.32;;
62941;SDS011;49042;47.318;19.874;2022-12-29T18:56:42;105.60;;;57.80;;
62941;SDS011;49042;47.318;19.874;2022-12-29T18:59:43;105.57;;;57.40;;
62941;SDS011;49042;47.318;19.874;2022-12-29T19:02:45;94.97;;;49.13;;
62941;SDS011;49042;47.318;19.874;2022-12-29T19:05:47;94.10;;;47.55;;
62941;SDS011;49042;47.318;19.874;2022-12-29T19:08:49;100.45;;;49.13;;
62941;SDS011;49042;47.318;19.874;2022-12-29T19:11:51;96.80;;;49.38;;
62941;SDS011;49042;47.318;19.874;2022-12-29T19:14:53;91.93;;;45.53;;
62941;SDS011;49042;47.318;19.874;2022-12-29T19:17:57;84.80;;;46.10;;
62941;SDS011;49042;47.318;19.874;2022-12-29T19:21:20;90.18;;;47.08;;
62941;SDS011;49042;47.318;19.874;2022-12-29T19:24:22;102.65;;;49.40;;
62941;SDS011;49042;47.318;19.874;2022-12-29T19:27:24;101.25;;;47.90;;
62941;SDS011;49042;47.318;19.874;2022-12-29T19:30:27;106.25;;;52.20;;
62941;SDS011;49042;47.318;19.874;2022-12-29T19:33:29;96.25;;;50.15;;
62941;SDS011;49042;47.318;19.874;2022-12-29T19:36:31;95.15;;;48.17;;
62941;SDS011;49042;47.318;19.874;2022-12-29T19:39:33;90.93;;;43.33;;
62941;SDS011;49042;47.318;19.874;2022-12-29T19:42:34;74.78;;;37.13;;
62941;SDS011;49042;47.318;19.874;2022-12-29T19:45:38;75.43;;;37.85;;
62941;SDS011;49042;47.318;19.874;2022-12-29T19:48:41;80.38;;;39.55;;
62941;SDS011;49042;47.318;19.874;2022-12-29T19:51:43;79.43;;;40.35;;
62941;SDS011;49042;47.318;19.874;2022-12-29T19:54:45;75.47;;;38.78;;
62941;SDS011;49042;47.318;19.874;2022-12-29T19:57:47;69.93;;;35.08;;
62941;SDS011;49042;47.318;19.874;2022-12-29T20:00:49;78.60;;;35.65;;
62941;SDS011;49042;47.318;19.874;2022-12-29T20:03:51;71.93;;;34.42;;
62941;SDS011;49042;47.318;19.874;2022-12-29T20:06:53;83.15;;;40.28;;
62941;SDS011;49042;47.318;19.874;2022-12-29T20:09:55;96.00;;;43.97;;
62941;SDS011;49042;47.318;19.874;2022-12-29T20:12:57;84.65;;;37.50;;
62941;SDS011;49042;47.318;19.874;2022-12-29T20:16:03;79.30;;;36.25;;
62941;SDS011;49042;47.318;19.874;2022-12-29T20:19:07;80.32;;;34.35;;
62941;SDS011;49042;47.318;19.874;2022-12-29T20:22:09;77.30;;;36.03;;
62941;SDS011;49042;47.318;19.874;2022-12-29T20:25:11;87.40;;;38.45;;